Time;durP1;ratioP1;P1;durP2;ratioP2;P2;SDS_P1;SDS_P2;PMS_P1;PMS_P2;Temp;Humidity;BMP_temperature;BMP_pressure;BME280_temperature;BME280_humidity;BME280_pressure;Samples;Min_cycle;Max_cycle;Signal;HPM_P1;HPM_P2
2021/05/19 00:02:06;;;;;;;0.63;0.60;;;14.10;99.90;;;;;;6293314;28;20477;-58
2021/05/19 00:05:09;;;;;;;0.50;0.50;;;14.10;99.90;;;;;;6277888;28;20476;-58
2021/05/19 00:08:12;;;;;;;1.63;0.40;;;14.00;99.90;;;;;;6297957;28;20480;-58
2021/05/19 00:11:16;;;;;;;0.63;0.43;;;14.00;99.90;;;;;;6286317;28;20470;-58
2021/05/19 00:14:20;;;;;;;0.70;0.40;;;14.00;99.90;;;;;;6289543;28;20469;-58
2021/05/19 00:17:22;;;;;;;2.50;0.67;;;14.10;99.90;;;;;;6298356;28;20469;-58
2021/05/19 00:20:25;;;;;;;2.73;0.70;;;14.10;99.90;;;;;;6274836;28;20481;-58
2021/05/19 00:23:28;;;;;;;0.70;0.50;;;14.20;99.90;;;;;;6273871;28;20809;-59
2021/05/19 00:26:32;;;;;;;1.00;0.60;;;14.20;99.90;;;;;;6273911;28;20809;-59
2021/05/19 00:29:35;;;;;;;1.37;0.50;;;14.20;99.90;;;;;;6273391;28;20493;-58
2021/05/19 00:32:37;;;;;;;1.47;0.50;;;14.20;99.90;;;;;;6273507;28;20469;-58
2021/05/19 00:35:40;;;;;;;1.17;0.60;;;14.10;98.80;;;;;;6273248;28;20466;-58
2021/05/19 00:38:43;;;;;;;1.90;0.50;;;14.00;98.60;;;;;;6273691;28;20477;-59
2021/05/19 00:41:46;;;;;;;1.37;0.97;;;14.10;98.70;;;;;;6283220;28;20487;-57
2021/05/19 00:44:49;;;;;;;0.97;0.50;;;14.00;98.60;;;;;;6323457;28;20479;-57
2021/05/19 00:47:52;;;;;;;2.10;0.60;;;13.90;99.00;;;;;;6308530;28;20951;-58
2021/05/19 00:50:55;;;;;;;0.63;0.47;;;13.90;98.90;;;;;;6313619;28;20816;-59
2021/05/19 00:53:58;;;;;;;0.97;0.50;;;13.90;98.80;;;;;;6295617;28;20473;-60
2021/05/19 00:57:02;;;;;;;1.50;0.67;;;13.90;99.00;;;;;;6295817;28;20810;-59
2021/05/19 01:00:07;;;;;;;1.00;0.57;;;13.90;98.80;;;;;;6295338;28;20476;-59
2021/05/19 01:03:09;;;;;;;1.47;0.40;;;13.90;99.30;;;;;;6295414;28;20468;-60
2021/05/19 01:06:18;;;;;;;1.17;0.60;;;13.80;99.20;;;;;;6295340;28;20480;-59
2021/05/19 01:09:35;;;;;;;0.70;0.50;;;13.70;99.70;;;;;;6296770;28;20465;-59
2021/05/19 01:12:39;;;;;;;0.50;0.50;;;13.70;99.90;;;;;;6298139;28;20480;-59
2021/05/19 01:15:42;;;;;;;0.77;0.70;;;13.60;99.90;;;;;;6297263;28;20484;-59
2021/05/19 01:18:45;;;;;;;1.17;0.50;;;13.70;99.90;;;;;;6298987;28;20472;-59
2021/05/19 01:21:50;;;;;;;0.67;0.67;;;13.70;99.90;;;;;;6306239;28;20809;-59
2021/05/19 01:24:55;;;;;;;1.53;0.70;;;13.70;99.90;;;;;;6306390;28;20469;-61
2021/05/19 01:28:00;;;;;;;1.80;0.83;;;13.70;99.90;;;;;;6306547;28;20484;-59
2021/05/19 01:31:03;;;;;;;0.80;0.53;;;13.80;99.90;;;;;;6306491;28;20476;-59
2021/05/19 01:34:05;;;;;;;0.50;0.50;;;13.80;99.90;;;;;;6307154;28;20473;-59
2021/05/19 01:37:11;;;;;;;1.20;0.77;;;13.70;99.90;;;;;;6307397;28;20845;-59
2021/05/19 01:40:18;;;;;;;4.13;0.67;;;13.70;99.90;;;;;;6306830;28;20806;-59
2021/05/19 01:43:29;;;;;;;0.90;0.57;;;13.70;99.90;;;;;;6307287;28;20469;-59
2021/05/19 01:46:32;;;;;;;2.10;0.70;;;13.80;99.90;;;;;;6307008;28;20916;-59
2021/05/19 01:49:39;;;;;;;4.67;0.80;;;13.80;99.90;;;;;;6297639;28;20460;-59
2021/05/19 01:52:43;;;;;;;1.50;0.73;;;13.70;99.90;;;;;;6306660;28;20497;-60
2021/05/19 01:55:47;;;;;;;1.30;0.93;;;13.80;99.90;;;;;;6307085;28;20784;-60
2021/05/19 01:58:49;;;;;;;0.70;0.70;;;13.80;99.90;;;;;;6307098;28;20457;-60
2021/05/19 02:01:52;;;;;;;1.50;0.60;;;13.70;99.90;;;;;;6307141;28;20476;-60
2021/05/19 02:04:56;;;;;;;1.90;0.80;;;13.70;99.90;;;;;;6306871;28;20469;-60
2021/05/19 02:07:59;;;;;;;1.73;0.93;;;13.70;99.90;;;;;;6307275;28;20492;-60
2021/05/19 02:11:03;;;;;;;0.80;0.80;;;13.70;99.90;;;;;;6307026;28;20479;-59
2021/05/19 02:14:06;;;;;;;4.10;0.90;;;13.70;99.90;;;;;;6306918;28;20468;-60
2021/05/19 02:17:09;;;;;;;1.00;1.00;;;13.70;99.90;;;;;;6306308;28;20488;-60
2021/05/19 02:20:14;;;;;;;0.90;0.70;;;13.70;99.90;;;;;;6306137;28;20557;-60
2021/05/19 02:23:17;;;;;;;1.40;0.77;;;13.70;99.90;;;;;;6307165;28;20473;-60
2021/05/19 02:26:20;;;;;;;0.97;0.87;;;13.60;99.90;;;;;;6306660;28;20479;-60
2021/05/19 02:29:24;;;;;;;1.50;0.67;;;13.60;99.90;;;;;;6306933;28;20465;-60
2021/05/19 02:32:27;;;;;;;1.57;0.70;;;13.50;99.90;;;;;;6302332;28;21198;-61
2021/05/19 02:35:30;;;;;;;1.50;0.60;;;13.50;99.90;;;;;;6302862;28;20476;-60
2021/05/19 02:38:34;;;;;;;0.80;0.80;;;13.50;99.90;;;;;;6302125;28;20937;-60
2021/05/19 02:41:39;;;;;;;1.23;0.60;;;13.40;99.90;;;;;;6302786;28;20469;-60
2021/05/19 02:44:42;;;;;;;0.70;0.70;;;13.40;99.90;;;;;;6303013;28;20492;-60
2021/05/19 02:47:45;;;;;;;0.50;0.40;;;13.40;99.90;;;;;;6302567;28;20480;-60
2021/05/19 02:50:48;;;;;;;3.60;0.83;;;13.30;99.90;;;;;;6301913;28;20477;-60
2021/05/19 02:53:50;;;;;;;0.53;0.47;;;13.20;99.90;;;;;;6297627;28;20483;-60
2021/05/19 02:56:54;;;;;;;0.60;0.60;;;13.00;99.90;;;;;;6302202;28;20480;-60
2021/05/19 02:59:57;;;;;;;0.90;0.57;;;13.00;99.90;;;;;;6301580;28;20473;-60
2021/05/19 03:03:00;;;;;;;0.70;0.60;;;13.00;99.90;;;;;;6302424;28;20476;-60
2021/05/19 03:06:02;;;;;;;3.63;1.10;;;12.90;99.90;;;;;;6302403;28;20473;-59
2021/05/19 03:09:06;;;;;;;1.27;0.90;;;12.80;99.90;;;;;;6302535;28;20818;-59
2021/05/19 03:12:10;;;;;;;1.30;1.13;;;12.60;99.90;;;;;;6302346;28;20527;-60
2021/05/19 03:15:14;;;;;;;2.10;1.40;;;12.60;99.90;;;;;;6302368;28;20487;-60
2021/05/19 03:18:17;;;;;;;2.03;1.50;;;12.50;99.90;;;;;;6302141;28;20470;-60
2021/05/19 03:21:20;;;;;;;1.90;1.80;;;12.40;99.90;;;;;;6302076;28;20495;-60
2021/05/19 03:24:23;;;;;;;2.57;1.47;;;12.40;99.90;;;;;;6301951;28;20465;-60
2021/05/19 03:27:27;;;;;;;1.73;1.63;;;12.40;99.90;;;;;;6301688;28;20480;-60
2021/05/19 03:30:29;;;;;;;2.07;1.40;;;12.40;99.90;;;;;;6301236;28;20473;-60
2021/05/19 03:33:32;;;;;;;2.00;1.43;;;12.40;99.90;;;;;;6300865;28;20465;-60
2021/05/19 03:36:35;;;;;;;0.90;0.90;;;12.50;99.90;;;;;;6301267;28;20479;-60
2021/05/19 03:39:38;;;;;;;0.83;0.70;;;12.50;99.90;;;;;;6301270;28;20473;-60
2021/05/19 03:42:42;;;;;;;1.27;1.17;;;12.50;99.90;;;;;;6300100;28;20465;-60
2021/05/19 03:45:45;;;;;;;4.00;0.93;;;12.60;99.90;;;;;;6300853;28;20480;-60
2021/05/19 03:48:53;;;;;;;1.27;1.13;;;12.60;99.90;;;;;;6301069;28;20477;-59
2021/05/19 03:51:56;;;;;;;2.17;1.30;;;12.60;99.90;;;;;;6300084;28;20991;-60
2021/05/19 03:55:00;;;;;;;3.13;0.90;;;12.60;99.90;;;;;;6301008;28;20683;-60
2021/05/19 03:58:04;;;;;;;1.33;1.23;;;12.60;99.90;;;;;;6295595;28;20471;-59
2021/05/19 04:01:07;;;;;;;2.40;1.20;;;12.60;99.90;;;;;;6300341;28;20481;-59
2021/05/19 04:04:10;;;;;;;3.27;1.60;;;12.60;99.90;;;;;;6300119;28;20491;-59
2021/05/19 04:07:14;;;;;;;1.40;1.30;;;12.60;99.90;;;;;;6300223;28;20469;-60
2021/05/19 04:10:17;;;;;;;1.50;1.40;;;12.60;99.90;;;;;;6299948;28;20483;-60
2021/05/19 04:13:21;;;;;;;1.40;1.00;;;12.50;99.90;;;;;;6300002;28;20476;-60
2021/05/19 04:16:25;;;;;;;1.20;0.80;;;12.50;99.90;;;;;;6299906;28;20841;-60
2021/05/19 04:19:28;;;;;;;3.50;1.30;;;12.40;99.90;;;;;;6299681;28;20457;-60
2021/05/19 04:22:31;;;;;;;1.63;1.17;;;12.40;99.90;;;;;;6300216;28;20487;-61
2021/05/19 04:25:35;;;;;;;1.27;1.10;;;12.40;99.90;;;;;;6299624;28;20444;-61
2021/05/19 04:28:39;;;;;;;4.40;1.03;;;12.50;99.90;;;;;;6300189;28;20448;-61
2021/05/19 04:31:42;;;;;;;1.60;1.23;;;12.50;99.90;;;;;;6299401;28;20480;-58
2021/05/19 04:34:45;;;;;;;1.60;1.20;;;12.50;99.90;;;;;;6299717;28;20479;-62
2021/05/19 04:37:47;;;;;;;1.20;1.10;;;12.60;99.90;;;;;;6299457;28;20503;-59
2021/05/19 04:40:50;;;;;;;2.13;1.20;;;12.60;99.90;;;;;;6299246;28;20473;-59
2021/05/19 04:43:54;;;;;;;2.43;1.50;;;12.50;99.90;;;;;;6299054;28;20472;-59
2021/05/19 04:46:57;;;;;;;1.70;1.60;;;12.30;99.90;;;;;;6299574;28;20473;-61
2021/05/19 04:49:59;;;;;;;1.30;1.20;;;12.30;99.90;;;;;;6299171;28;20488;-62
2021/05/19 04:53:03;;;;;;;1.20;1.00;;;12.30;99.90;;;;;;6299551;28;20475;-61
2021/05/19 04:56:06;;;;;;;0.97;0.80;;;12.30;99.90;;;;;;6298873;28;20480;-62
2021/05/19 04:59:09;;;;;;;2.50;1.10;;;12.30;99.90;;;;;;6293769;28;20801;-61
2021/05/19 05:02:12;;;;;;;1.93;1.00;;;12.30;99.90;;;;;;6299171;28;20980;-61
2021/05/19 05:05:15;;;;;;;1.53;1.20;;;12.30;99.90;;;;;;6298903;28;20461;-62
2021/05/19 05:08:18;;;;;;;1.67;1.13;;;12.40;99.90;;;;;;6299525;28;20548;-60
2021/05/19 05:11:21;;;;;;;0.80;0.80;;;12.40;99.90;;;;;;6298836;28;20485;-60
2021/05/19 05:14:24;;;;;;;0.80;0.80;;;12.40;99.90;;;;;;6299460;28;20468;-60
2021/05/19 05:17:27;;;;;;;1.10;1.00;;;12.40;99.90;;;;;;6298443;28;20806;-61
2021/05/19 05:20:30;;;;;;;0.73;0.73;;;12.50;99.90;;;;;;6298639;28;20469;-61
2021/05/19 05:23:33;;;;;;;1.07;0.90;;;12.40;99.90;;;;;;6298498;28;20487;-60
2021/05/19 05:26:36;;;;;;;2.30;0.80;;;12.40;99.90;;;;;;6298763;28;20548;-60
2021/05/19 05:29:40;;;;;;;0.60;0.60;;;12.40;99.90;;;;;;6298492;28;20469;-61
2021/05/19 05:32:43;;;;;;;1.10;1.10;;;12.50;99.90;;;;;;6298178;28;20758;-61
2021/05/19 05:35:46;;;;;;;1.27;1.17;;;12.60;99.90;;;;;;6298448;28;20552;-63
2021/05/19 05:38:49;;;;;;;1.70;1.10;;;12.60;99.90;;;;;;6298219;28;20469;-61
2021/05/19 05:41:52;;;;;;;1.70;0.97;;;12.50;99.90;;;;;;6298666;28;20497;-60
2021/05/19 05:44:56;;;;;;;0.70;0.70;;;12.50;99.90;;;;;;6298500;28;20464;-60
2021/05/19 05:47:59;;;;;;;0.70;0.70;;;12.40;99.90;;;;;;6298758;28;20473;-61
2021/05/19 05:51:01;;;;;;;0.90;0.80;;;12.40;99.90;;;;;;6298604;28;20488;-61
2021/05/19 05:54:05;;;;;;;0.80;0.80;;;12.40;99.90;;;;;;6298807;28;20476;-61
2021/05/19 05:57:08;;;;;;;0.67;0.63;;;12.60;99.90;;;;;;6298703;28;20465;-61
2021/05/19 06:00:13;;;;;;;6.03;1.10;;;12.70;99.90;;;;;;6298669;28;20473;-61
2021/05/19 06:03:16;;;;;;;1.03;0.80;;;12.80;99.90;;;;;;6298328;28;20792;-61
2021/05/19 06:06:19;;;;;;;1.60;1.03;;;12.90;99.90;;;;;;6299941;28;20461;-61
2021/05/19 06:09:22;;;;;;;1.73;1.00;;;13.00;99.90;;;;;;6303238;28;20471;-60
2021/05/19 06:12:25;;;;;;;3.53;1.30;;;13.10;99.90;;;;;;6302905;28;20477;-60
2021/05/19 06:15:28;;;;;;;2.43;1.17;;;13.10;99.90;;;;;;6302938;28;20500;-61
2021/05/19 06:18:31;;;;;;;1.20;0.80;;;13.20;99.90;;;;;;6302701;28;20480;-61
2021/05/19 06:21:34;;;;;;;1.30;0.80;;;13.20;99.90;;;;;;6302813;28;20484;-60
2021/05/19 06:24:37;;;;;;;1.80;1.20;;;13.40;99.90;;;;;;6302488;28;20529;-60
2021/05/19 06:27:40;;;;;;;2.20;0.93;;;13.30;99.90;;;;;;6302870;28;20475;-60
2021/05/19 06:30:43;;;;;;;1.53;1.20;;;13.40;99.90;;;;;;6302208;28;20479;-60
2021/05/19 06:33:46;;;;;;;1.00;0.90;;;13.60;99.90;;;;;;6302426;28;20814;-60
2021/05/19 06:36:56;;;;;;;3.40;1.40;;;13.70;99.90;;;;;;6302214;28;20484;-60
2021/05/19 06:39:59;;;;;;;2.50;1.63;;;13.80;99.90;;;;;;6302737;28;20976;-60
2021/05/19 06:43:02;;;;;;;1.60;1.37;;;13.90;99.90;;;;;;6302266;28;20465;-60
2021/05/19 06:46:06;;;;;;;1.47;1.20;;;14.10;99.90;;;;;;6302097;28;20473;-60
2021/05/19 06:49:09;;;;;;;1.57;1.10;;;14.10;99.90;;;;;;6302131;28;20469;-60
2021/05/19 06:52:11;;;;;;;1.07;0.93;;;14.10;99.90;;;;;;6301995;28;20485;-61
2021/05/19 06:55:15;;;;;;;0.80;0.70;;;14.10;99.90;;;;;;6302249;28;20808;-60
2021/05/19 06:58:18;;;;;;;1.37;1.07;;;13.90;99.90;;;;;;6301870;28;20964;-60
2021/05/19 07:01:22;;;;;;;1.60;1.00;;;13.70;99.90;;;;;;6302085;28;20832;-60
2021/05/19 07:04:25;;;;;;;2.60;1.43;;;13.50;99.90;;;;;;6301656;28;20475;-61
2021/05/19 07:07:28;;;;;;;1.20;1.10;;;13.30;99.90;;;;;;6297643;28;20453;-61
2021/05/19 07:10:31;;;;;;;1.37;1.00;;;13.20;99.90;;;;;;6300569;28;21117;-60
2021/05/19 07:13:34;;;;;;;1.63;1.30;;;13.30;99.90;;;;;;6301105;28;20774;-60
2021/05/19 07:16:39;;;;;;;2.23;1.50;;;13.40;99.90;;;;;;6295510;28;20967;-60
2021/05/19 07:19:41;;;;;;;2.30;1.10;;;13.50;99.90;;;;;;6301267;28;20547;-60
2021/05/19 07:22:44;;;;;;;1.70;1.07;;;13.50;99.90;;;;;;6300592;28;20437;-60
2021/05/19 07:25:47;;;;;;;1.60;1.43;;;13.50;99.90;;;;;;6300186;28;20924;-60
2021/05/19 07:28:51;;;;;;;2.60;1.10;;;13.50;99.90;;;;;;6300411;28;20465;-61
2021/05/19 07:31:56;;;;;;;3.97;2.07;;;13.50;99.90;;;;;;6297772;28;20508;-60
2021/05/19 07:34:59;;;;;;;2.07;1.57;;;13.60;99.90;;;;;;6291120;28;20957;-60
2021/05/19 07:38:02;;;;;;;1.90;1.80;;;13.60;99.90;;;;;;6300886;28;20477;-60
2021/05/19 07:41:05;;;;;;;2.33;2.13;;;13.60;99.90;;;;;;6301102;28;20469;-64
2021/05/19 07:44:08;;;;;;;2.33;2.13;;;13.70;99.90;;;;;;6300658;28;20479;-64
2021/05/19 07:47:12;;;;;;;2.93;2.00;;;13.70;99.90;;;;;;6300887;28;20480;-64
2021/05/19 07:50:14;;;;;;;1.83;1.67;;;13.80;99.90;;;;;;6300118;28;20465;-63
2021/05/19 07:53:16;;;;;;;3.43;1.87;;;13.90;99.90;;;;;;6300968;28;20568;-62
2021/05/19 07:56:21;;;;;;;2.57;2.00;;;14.00;99.90;;;;;;6300631;28;20493;-61
2021/05/19 07:59:25;;;;;;;2.80;1.83;;;13.90;99.90;;;;;;6300501;28;20469;-63
2021/05/19 08:02:27;;;;;;;2.90;2.03;;;14.00;99.90;;;;;;6300109;28;20473;-63
2021/05/19 08:05:29;;;;;;;4.60;2.93;;;14.00;99.90;;;;;;6299288;28;20800;-63
2021/05/19 08:08:31;;;;;;;4.67;2.03;;;13.90;99.90;;;;;;6297341;28;20532;-63
2021/05/19 08:11:34;;;;;;;3.60;2.40;;;13.50;99.90;;;;;;6299904;28;20895;-64
2021/05/19 08:14:36;;;;;;;3.50;2.27;;;13.60;99.90;;;;;;6300266;28;20461;-63
2021/05/19 08:17:38;;;;;;;2.40;2.20;;;13.70;99.90;;;;;;6299748;28;20469;-64
2021/05/19 08:20:41;;;;;;;2.40;2.10;;;13.90;99.90;;;;;;6299921;28;20945;-65
2021/05/19 08:23:46;;;;;;;2.63;2.43;;;14.10;99.90;;;;;;6299506;28;20556;-64
2021/05/19 08:26:48;;;;;;;2.87;2.37;;;14.30;99.90;;;;;;6299799;28;20465;-64
2021/05/19 08:29:53;;;;;;;6.63;2.70;;;14.40;99.90;;;;;;6299021;28;20489;-62
2021/05/19 08:33:00;;;;;;;2.63;2.43;;;14.40;99.90;;;;;;6299712;28;20477;-63
2021/05/19 08:36:03;;;;;;;4.33;1.80;;;14.50;99.90;;;;;;6276598;28;20537;-62
2021/05/19 08:39:06;;;;;;;2.60;2.30;;;14.70;99.90;;;;;;6291592;28;20469;-62
2021/05/19 08:42:09;;;;;;;3.93;2.20;;;14.70;99.90;;;;;;6299342;28;20473;-59
2021/05/19 08:45:14;;;;;;;2.00;1.80;;;14.60;99.90;;;;;;6299209;28;20488;-59
2021/05/19 08:48:18;;;;;;;4.20;2.23;;;14.70;99.90;;;;;;6299118;28;20480;-59
2021/05/19 08:51:20;;;;;;;1.93;1.83;;;14.80;99.90;;;;;;6299137;28;20479;-61
2021/05/19 08:54:24;;;;;;;5.90;3.80;;;15.00;99.90;;;;;;6299052;28;20987;-61
2021/05/19 08:57:27;;;;;;;2.43;1.73;;;15.10;99.90;;;;;;6299421;28;20484;-63
2021/05/19 09:00:31;;;;;;;2.30;2.07;;;15.20;99.90;;;;;;6299234;28;20469;-65
2021/05/19 09:03:36;;;;;;;3.60;2.67;;;15.10;99.90;;;;;;6298979;28;20475;-64
2021/05/19 09:06:39;;;;;;;2.40;2.20;;;15.10;99.90;;;;;;6275069;28;20560;-63
2021/05/19 09:09:42;;;;;;;2.67;2.33;;;15.00;99.90;;;;;;6273837;28;20474;-60
2021/05/19 09:12:45;;;;;;;2.47;2.27;;;15.00;99.90;;;;;;6286588;28;20488;-62
2021/05/19 09:15:49;;;;;;;13.47;10.77;;;15.10;99.90;;;;;;6288964;28;20822;-60
2021/05/19 09:18:54;;;;;;;2.87;2.67;;;15.00;99.90;;;;;;6298961;28;20473;-62
2021/05/19 09:21:57;;;;;;;3.17;2.40;;;15.00;99.90;;;;;;6298688;28;20961;-61
2021/05/19 09:25:02;;;;;;;2.33;2.13;;;14.90;99.90;;;;;;6298681;28;20472;-61
2021/05/19 09:28:07;;;;;;;2.40;2.20;;;14.80;99.90;;;;;;6298730;28;20836;-61
2021/05/19 09:31:20;;;;;;;2.80;2.60;;;14.80;99.90;;;;;;6298501;28;20477;-61
2021/05/19 09:34:25;;;;;;;2.63;2.43;;;14.70;99.90;;;;;;6298074;28;20560;-60
2021/05/19 09:37:30;;;;;;;3.00;2.80;;;14.60;99.90;;;;;;6276554;28;20480;-61
2021/05/19 09:40:32;;;;;;;3.67;2.60;;;14.70;99.90;;;;;;6301815;28;20543;-61
2021/05/19 09:43:36;;;;;;;2.83;2.63;;;14.80;99.90;;;;;;6307152;28;20451;-61
2021/05/19 09:46:46;;;;;;;3.13;2.07;;;14.90;99.90;;;;;;6303468;28;20881;-60
2021/05/19 09:49:57;;;;;;;1.37;1.00;;;15.00;99.90;;;;;;6278739;28;20469;-60
2021/05/19 09:53:06;;;;;;;1.23;1.10;;;15.00;99.90;;;;;;6278702;28;20470;-61
2021/05/19 09:56:09;;;;;;;1.43;1.03;;;15.10;99.90;;;;;;6278756;28;20476;-60
2021/05/19 09:59:20;;;;;;;1.23;1.03;;;15.20;99.90;;;;;;6278150;28;20550;-60
2021/05/19 10:02:27;;;;;;;2.27;1.20;;;15.30;99.90;;;;;;6277950;28;20544;-60
2021/05/19 10:05:32;;;;;;;1.60;0.87;;;15.40;99.90;;;;;;6283245;28;20944;-62
2021/05/19 10:08:36;;;;;;;1.43;1.00;;;15.50;99.90;;;;;;6302434;28;20468;-61
2021/05/19 10:11:38;;;;;;;1.20;1.10;;;15.70;98.60;;;;;;6303118;28;20805;-61
2021/05/19 10:14:41;;;;;;;1.30;1.20;;;15.90;98.60;;;;;;6302774;28;20483;-58
2021/05/19 10:17:48;;;;;;;1.40;1.00;;;16.10;98.90;;;;;;6298079;28;20480;-58
2021/05/19 10:20:55;;;;;;;2.27;1.20;;;16.20;98.10;;;;;;6299794;28;20492;-58
2021/05/19 10:24:03;;;;;;;1.57;1.00;;;16.50;97.80;;;;;;6301330;28;20465;-58
2021/05/19 10:27:08;;;;;;;4.13;1.00;;;16.60;97.00;;;;;;6300343;28;20469;-58
2021/05/19 10:30:12;;;;;;;2.37;1.27;;;16.70;96.20;;;;;;6298274;28;20477;-58
2021/05/19 10:33:46;;;;;;;0.80;0.80;;;16.80;96.10;;;;;;6300751;28;20994;-60
2021/05/19 10:36:52;;;;;;;1.43;1.00;;;17.20;95.80;;;;;;6294157;28;20619;-59
2021/05/19 10:40:39;;;;;;;1.30;0.70;;;17.20;95.00;;;;;;6299971;28;20471;-60
2021/05/19 10:43:48;;;;;;;0.90;0.80;;;17.30;94.00;;;;;;6298961;28;20512;-61
2021/05/19 10:46:55;;;;;;;1.73;1.20;;;17.50;93.20;;;;;;6301373;28;20457;-60
2021/05/19 10:50:15;;;;;;;0.80;0.80;;;17.70;93.20;;;;;;6300923;28;20923;-61
2021/05/19 11:00:20;;;;;;;2.40;1.00;;;18.30;92.90;;;;;;6298869;28;20923;-60
2021/05/19 11:03:23;;;;;;;1.00;0.90;;;18.50;92.60;;;;;;6300624;28;20461;-60
2021/05/19 11:06:26;;;;;;;0.90;0.77;;;18.60;92.30;;;;;;6300591;28;20473;-60
2021/05/19 11:09:31;;;;;;;1.10;0.50;;;18.70;90.90;;;;;;6301656;28;20484;-60
2021/05/19 11:12:46;;;;;;;0.67;0.67;;;18.50;90.10;;;;;;6301515;28;20238;-60
2021/05/19 11:16:03;;;;;;;1.03;0.77;;;18.10;90.40;;;;;;6301252;28;20491;-60
2021/05/19 11:19:09;;;;;;;2.90;0.90;;;17.80;91.20;;;;;;6300689;28;20481;-60
2021/05/19 11:22:13;;;;;;;1.20;1.00;;;17.70;91.50;;;;;;6272098;28;20482;-60
2021/05/19 11:25:22;;;;;;;2.67;1.40;;;17.50;92.50;;;;;;6277612;28;20485;-60
2021/05/19 11:28:26;;;;;;;2.13;1.70;;;17.20;93.40;;;;;;6292257;28;20991;-60
2021/05/19 11:31:34;;;;;;;1.73;0.73;;;17.10;94.50;;;;;;6278920;28;20461;-60
2021/05/19 11:34:37;;;;;;;4.40;0.80;;;16.80;94.90;;;;;;6288503;28;20470;-60
2021/05/19 11:37:53;;;;;;;1.30;0.70;;;16.70;94.70;;;;;;6300974;28;20441;-60
2021/05/19 11:40:57;;;;;;;2.67;0.83;;;16.60;95.40;;;;;;6308599;28;20480;-60
2021/05/19 11:43:59;;;;;;;1.00;0.93;;;16.40;94.60;;;;;;6300809;28;20484;-60
2021/05/19 11:47:03;;;;;;;1.00;0.90;;;16.40;94.60;;;;;;6300654;28;20800;-60
2021/05/19 11:50:15;;;;;;;1.57;0.73;;;16.50;95.00;;;;;;6300410;28;20980;-61
2021/05/19 11:53:18;;;;;;;0.90;0.90;;;16.40;94.60;;;;;;6300237;28;20477;-59
2021/05/19 11:56:22;;;;;;;1.20;0.97;;;16.40;95.80;;;;;;6300348;28;20470;-59
2021/05/19 11:59:28;;;;;;;1.20;0.90;;;16.60;95.70;;;;;;6299330;28;20469;-60
2021/05/19 12:02:32;;;;;;;1.47;0.70;;;16.70;95.80;;;;;;6304525;28;20472;-61
2021/05/19 12:05:45;;;;;;;2.13;0.63;;;16.80;94.80;;;;;;6324164;28;20557;-60
2021/05/19 12:08:48;;;;;;;1.20;0.90;;;16.90;94.40;;;;;;6313931;28;20469;-61
2021/05/19 12:11:52;;;;;;;1.83;0.80;;;17.10;95.30;;;;;;6297647;28;20481;-61
2021/05/19 12:14:58;;;;;;;1.47;0.97;;;17.30;94.60;;;;;;6297669;28;20465;-61
2021/05/19 12:18:16;;;;;;;0.87;0.87;;;17.60;94.50;;;;;;6297622;28;20470;-60
2021/05/19 12:21:19;;;;;;;0.83;0.60;;;17.80;93.30;;;;;;6297605;28;20477;-61
2021/05/19 12:24:24;;;;;;;1.63;0.87;;;18.10;93.60;;;;;;6297187;28;20925;-61
2021/05/19 12:27:28;;;;;;;1.83;1.37;;;18.30;92.60;;;;;;6285439;28;20821;-60
2021/05/19 12:30:42;;;;;;;0.90;0.57;;;18.30;91.70;;;;;;6299463;28;20924;-59
2021/05/19 12:33:46;;;;;;;0.97;0.87;;;18.50;91.20;;;;;;6291974;28;20474;-60
2021/05/19 12:36:56;;;;;;;1.37;0.70;;;18.70;90.90;;;;;;6297452;28;20461;-60
2021/05/19 12:40:01;;;;;;;1.40;0.83;;;19.00;89.30;;;;;;6298828;28;20967;-60
2021/05/19 12:43:06;;;;;;;1.60;1.43;;;19.20;88.40;;;;;;6290923;28;20500;-60
2021/05/19 12:46:14;;;;;;;3.87;3.03;;;18.70;87.00;;;;;;6299351;28;20465;-59
2021/05/19 12:49:29;;;;;;;1.50;1.17;;;18.60;90.60;;;;;;6299220;28;20457;-60
2021/05/19 12:52:33;;;;;;;6.47;1.37;;;18.30;91.20;;;;;;6299206;28;20437;-60
2021/05/19 12:55:36;;;;;;;5.00;1.30;;;18.00;91.50;;;;;;6298911;28;20473;-60
2021/05/19 12:58:50;;;;;;;3.63;1.90;;;17.80;91.80;;;;;;6299172;28;20781;-59
2021/05/19 13:01:53;;;;;;;2.30;1.30;;;17.50;91.30;;;;;;6298742;28;20457;-60
2021/05/19 13:04:58;;;;;;;3.87;1.17;;;17.10;93.00;;;;;;6299510;28;20469;-60
2021/05/19 13:08:01;;;;;;;1.43;0.80;;;16.60;94.50;;;;;;6299363;28;20473;-59
2021/05/19 13:11:06;;;;;;;1.23;1.07;;;16.40;94.80;;;;;;6297758;28;20484;-59
2021/05/19 13:14:10;;;;;;;1.47;1.20;;;16.10;95.90;;;;;;6298424;28;20980;-60
2021/05/19 13:17:25;;;;;;;5.00;1.47;;;16.10;96.90;;;;;;6298478;28;20472;-61
2021/05/19 13:20:29;;;;;;;5.00;1.33;;;15.90;97.20;;;;;;6298766;28;20484;-60
2021/05/19 13:23:47;;;;;;;0.80;0.70;;;15.70;99.00;;;;;;6298907;28;20465;-59
2021/05/19 13:26:54;;;;;;;0.80;0.70;;;15.50;96.00;;;;;;6297418;28;20477;-58
2021/05/19 13:30:03;;;;;;;0.90;0.80;;;15.20;95.20;;;;;;6289973;28;20515;-59
2021/05/19 13:33:18;;;;;;;0.60;0.60;;;15.30;96.60;;;;;;6296474;28;20836;-60
2021/05/19 13:36:28;;;;;;;0.80;0.80;;;15.50;96.60;;;;;;6293176;28;20465;-59
2021/05/19 13:39:32;;;;;;;1.00;0.80;;;15.60;97.20;;;;;;6298465;28;20480;-60
2021/05/19 13:42:34;;;;;;;0.60;0.57;;;15.80;96.00;;;;;;6320166;28;20460;-59
2021/05/19 13:45:38;;;;;;;1.00;0.70;;;15.90;96.00;;;;;;6323419;28;20464;-60
2021/05/19 13:48:41;;;;;;;1.60;0.77;;;16.00;96.20;;;;;;6323686;28;20468;-60
2021/05/19 13:51:46;;;;;;;2.60;1.10;;;15.90;96.90;;;;;;6323148;28;20480;-58
2021/05/19 13:54:49;;;;;;;0.73;0.73;;;16.00;97.20;;;;;;6323310;28;20483;-59
2021/05/19 13:57:52;;;;;;;2.40;1.60;;;16.00;97.60;;;;;;6323208;28;20468;-57
2021/05/19 14:00:56;;;;;;;1.93;1.20;;;16.00;97.60;;;;;;6307178;28;20499;-59
2021/05/19 14:03:59;;;;;;;1.17;0.90;;;15.80;97.20;;;;;;6297580;28;20794;-61
2021/05/19 14:07:01;;;;;;;0.80;0.77;;;15.60;95.40;;;;;;6298040;28;20995;-61
2021/05/19 14:10:06;;;;;;;2.30;1.00;;;15.40;96.10;;;;;;6297787;28;20473;-62
2021/05/19 14:13:12;;;;;;;2.87;1.53;;;15.30;96.10;;;;;;6297558;28;20948;-62
2021/05/19 14:29:41;;;;;;;1.30;0.80;;;14.80;95.70;;;;;;6302191;28;20999;-62
2021/05/19 14:32:45;;;;;;;3.00;0.90;;;14.70;96.50;;;;;;6302905;28;20477;-62
2021/05/19 14:46:32;;;;;;;0.97;0.87;;;14.80;97.00;;;;;;6302015;28;20763;-60
2021/05/19 14:59:44;;;;;;;1.67;0.80;;;14.90;96.80;;;;;;6301592;28;20473;-61
2021/05/19 15:02:48;;;;;;;1.00;0.90;;;15.00;95.50;;;;;;6300770;28;20474;-60
2021/05/19 15:05:51;;;;;;;0.87;0.60;;;15.00;95.40;;;;;;6299624;28;20802;-59
2021/05/19 15:08:54;;;;;;;0.70;0.70;;;15.20;95.00;;;;;;6299545;28;20483;-60
2021/05/19 15:11:57;;;;;;;1.20;0.40;;;15.20;95.70;;;;;;6298581;28;20940;-60
2021/05/19 15:15:00;;;;;;;2.47;0.60;;;15.20;94.50;;;;;;6299425;28;20477;-59
2021/05/19 15:18:03;;;;;;;0.67;0.67;;;15.20;93.10;;;;;;6299768;28;20473;-59
2021/05/19 15:21:07;;;;;;;0.77;0.77;;;15.10;92.50;;;;;;6301205;28;20465;-59
2021/05/19 15:24:10;;;;;;;1.30;0.70;;;15.10;91.40;;;;;;6301332;28;20802;-60
2021/05/19 15:27:14;;;;;;;0.50;0.40;;;15.20;91.90;;;;;;6301037;28;20774;-61
2021/05/19 15:30:18;;;;;;;0.63;0.47;;;15.10;92.40;;;;;;6300631;28;20956;-62
2021/05/19 15:33:21;;;;;;;1.80;0.83;;;15.10;91.00;;;;;;6301027;28;20498;-63
2021/05/19 15:36:25;;;;;;;3.63;0.70;;;15.20;90.80;;;;;;6300599;28;20526;-61
2021/05/19 15:39:28;;;;;;;0.60;0.50;;;15.10;90.70;;;;;;6300817;28;20492;-60
2021/05/19 15:42:31;;;;;;;0.90;0.70;;;14.90;91.10;;;;;;6308993;28;20825;-60
2021/05/19 15:45:34;;;;;;;2.20;0.60;;;15.00;91.00;;;;;;6300749;28;20465;-61
2021/05/19 15:48:36;;;;;;;0.50;0.40;;;14.90;90.80;;;;;;6300372;28;20465;-61
2021/05/19 15:51:41;;;;;;;0.50;0.40;;;14.80;90.00;;;;;;6299968;28;20477;-61
2021/05/19 15:54:44;;;;;;;0.93;0.50;;;14.80;90.00;;;;;;6275388;28;20493;-62
2021/05/19 15:57:46;;;;;;;1.30;0.60;;;14.70;90.70;;;;;;6294856;28;20468;-61
2021/05/19 16:00:50;;;;;;;0.70;0.50;;;14.70;90.90;;;;;;6299877;28;20477;-60
2021/05/19 16:03:55;;;;;;;1.77;0.40;;;15.00;90.20;;;;;;6300117;28;20476;-59
2021/05/19 16:07:00;;;;;;;1.43;0.63;;;15.10;88.00;;;;;;6299902;28;20963;-60
2021/05/19 16:10:04;;;;;;;1.67;0.63;;;15.30;86.40;;;;;;6296829;28;20469;-58
2021/05/19 16:13:08;;;;;;;0.60;0.40;;;15.40;86.10;;;;;;6291027;28;20479;-58
2021/05/19 16:16:10;;;;;;;0.53;0.50;;;15.40;84.60;;;;;;6299435;28;20481;-59
2021/05/19 16:19:13;;;;;;;3.43;0.50;;;15.50;83.00;;;;;;6299901;28;20473;-62
2021/05/19 16:22:17;;;;;;;1.80;0.47;;;15.50;83.50;;;;;;6299763;28;20971;-61
2021/05/19 16:25:20;;;;;;;1.00;0.60;;;15.60;83.00;;;;;;6299692;28;20468;-60
2021/05/19 16:28:23;;;;;;;1.17;0.90;;;15.70;83.30;;;;;;6299298;28;20488;-59
2021/05/19 16:31:26;;;;;;;1.13;0.70;;;15.70;83.20;;;;;;6297855;28;20503;-59
2021/05/19 16:34:28;;;;;;;1.27;0.70;;;15.60;81.20;;;;;;6299486;28;20469;-59
2021/05/19 16:37:32;;;;;;;0.70;0.70;;;15.70;82.50;;;;;;6291321;28;21014;-60
2021/05/19 16:40:35;;;;;;;0.77;0.77;;;15.70;82.60;;;;;;6301133;28;20448;-60
2021/05/19 16:43:38;;;;;;;0.90;0.80;;;15.60;81.70;;;;;;6302577;28;20448;-60